Time;durP1;ratioP1;P1;durP2;ratioP2;P2;SDS_P1;SDS_P2;PMS_P1;PMS_P2;Temp;Humidity;BMP_temperature;BMP_pressure;BME280_temperature;BME280_humidity;BME280_pressure;Samples;Min_cycle;Max_cycle;Signal;HPM_P1;HPM_P2
2024/02/12 00:01:45;;;;;;;;;6.25;6.00;;;;;-143.90;100.00;74140.72;4863294;28;102328;-72
2024/02/12 00:04:14;;;;;;;;;7.25;7.00;;;;;-143.90;100.00;74146.91;4861567;28;108067;-73
2024/02/12 00:06:43;;;;;;;;;3.00;3.00;;;;;-143.90;100.00;74153.13;4866512;28;102173;-73
2024/02/12 00:09:12;;;;;;;;;4.00;4.00;;;;;-143.90;100.00;74157.25;4860334;28;101964;-72
2024/02/12 00:11:41;;;;;;;;;5.50;4.00;;;;;-143.90;100.00;74169.66;4838866;28;102485;-73
2024/02/12 00:14:08;;;;;;;;;5.50;4.75;;;;;-143.90;100.00;74165.53;4860855;28;103503;-73
2024/02/12 00:16:38;;;;;;;;;4.00;4.00;;;;;-143.90;100.00;74171.72;4864011;28;102343;-73
2024/02/12 00:19:05;;;;;;;;;4.00;3.00;;;;;-143.90;100.00;74180.00;4863541;28;101820;-73
2024/02/12 00:21:31;;;;;;;;;6.00;5.00;;;;;-143.90;100.00;74194.47;4845602;28;102972;-73
2024/02/12 00:23:58;;;;;;;;;7.50;6.50;;;;;-143.90;100.00;74200.66;4865127;28;103460;-73
2024/02/12 00:26:25;;;;;;;;;7.25;6.75;;;;;-143.90;100.00;74208.94;4862499;28;103173;-73
2024/02/12 00:28:54;;;;;;;;;7.75;6.00;;;;;-143.90;100.00;74208.94;4861768;28;103557;-73
2024/02/12 00:31:22;;;;;;;;;6.25;6.25;;;;;-143.90;100.00;74219.25;4859091;28;104570;-73
2024/02/12 00:33:49;;;;;;;;;9.00;7.00;;;;;-143.90;100.00;74211.00;4861770;28;104619;-73
2024/02/12 00:36:19;;;;;;;;;6.00;4.00;;;;;-143.90;100.00;74219.25;4867104;28;101739;-74
2024/02/12 00:38:47;;;;;;;;;10.00;8.00;;;;;-143.90;100.00;74225.47;4863035;28;102904;-74
2024/02/12 00:41:20;;;;;;;;;7.75;7.75;;;;;-143.90;100.00;74225.47;4855274;28;101688;-73
2024/02/12 00:43:47;;;;;;;;;8.75;6.75;;;;;-143.90;100.00;74229.59;4856934;28;107978;-73
2024/02/12 00:46:17;;;;;;;;;6.25;6.25;;;;;-143.90;100.00;74227.53;4861207;28;101902;-73
2024/02/12 00:48:46;;;;;;;;;5.00;4.50;;;;;-143.90;100.00;74225.47;4866103;28;102644;-73
2024/02/12 00:51:15;;;;;;;;;5.00;5.00;;;;;-143.90;100.00;74229.59;4860287;28;102027;-74
2024/02/12 00:53:45;;;;;;;;;5.75;4.25;;;;;-143.90;100.00;74233.72;4859988;28;103887;-73
2024/02/12 00:56:15;;;;;;;;;2.00;2.00;;;;;-143.90;100.00;74242.00;4863340;28;104708;-74
2024/02/12 00:58:45;;;;;;;;;7.25;7.25;;;;;-143.90;100.00;74246.13;4860843;28;102138;-73
2024/02/12 01:01:13;;;;;;;;;9.00;8.00;;;;;-143.90;100.00;74254.41;4862596;28;102165;-73
2024/02/12 01:03:40;;;;;;;;;5.50;3.25;;;;;-143.90;100.00;74246.13;4856535;28;103359;-73
2024/02/12 01:06:08;;;;;;;;;5.50;4.50;;;;;-143.90;100.00;74248.19;4866156;28;102122;-73
2024/02/12 01:08:38;;;;;;;;;3.75;3.50;;;;;-143.90;100.00;74248.19;4868441;28;106386;-73
2024/02/12 01:11:07;;;;;;;;;7.00;6.25;;;;;-143.90;100.00;74254.41;4863436;28;101979;-73
2024/02/12 01:13:34;;;;;;;;;3.50;3.50;;;;;-143.90;100.00;74258.53;4854537;28;103469;-73
2024/02/12 01:16:00;;;;;;;;;3.75;3.00;;;;;-143.90;100.00;74254.41;4861419;28;103359;-74
2024/02/12 01:18:28;;;;;;;;;1.00;1.00;;;;;-143.90;100.00;74258.53;4859350;28;102048;-73
2024/02/12 01:20:55;;;;;;;;;4.75;3.50;;;;;-143.90;100.00;74254.41;4863771;28;102034;-73
2024/02/12 01:23:22;;;;;;;;;7.00;7.00;;;;;-143.90;100.00;74258.53;4853213;28;103450;-73
2024/02/12 01:25:51;;;;;;;;;5.50;4.50;;;;;-143.90;100.00;74260.59;4866656;28;101903;-73
2024/02/12 01:28:19;;;;;;;;;7.25;7.00;;;;;-143.90;100.00;74258.53;4866671;28;101665;-73
2024/02/12 01:30:46;;;;;;;;;7.75;7.00;;;;;-143.90;100.00;74266.81;4846466;28;102096;-73
2024/02/12 01:33:15;;;;;;;;;4.00;4.00;;;;;-143.90;100.00;74258.53;4865117;28;103604;-74
2024/02/12 01:35:43;;;;;;;;;3.75;3.75;;;;;-143.90;100.00;74262.66;4860577;28;102332;-73
2024/02/12 01:38:11;;;;;;;;;6.50;4.00;;;;;-143.90;100.00;74260.59;4858644;28;102333;-73
2024/02/12 01:40:38;;;;;;;;;6.75;6.00;;;;;-143.90;100.00;74256.47;4857016;28;102390;-73
2024/02/12 01:43:05;;;;;;;;;6.25;4.00;;;;;-143.90;100.00;74262.66;4863966;28;103484;-73
2024/02/12 01:45:33;;;;;;;;;3.25;3.00;;;;;-143.90;100.00;74266.81;4839601;28;102242;-73
2024/02/12 01:48:01;;;;;;;;;4.00;4.00;;;;;-143.90;100.00;74260.59;4859774;28;101853;-73
2024/02/12 01:50:31;;;;;;;;;5.00;4.00;;;;;-143.90;100.00;74260.59;4861323;28;101609;-73
2024/02/12 01:52:58;;;;;;;;;5.50;3.00;;;;;-143.90;100.00;74264.72;4863755;28;103395;-73
2024/02/12 01:55:26;;;;;;;;;3.75;2.75;;;;;-143.90;100.00;74262.66;4858733;28;102816;-73
2024/02/12 01:57:53;;;;;;;;;5.75;4.50;;;;;-143.90;100.00;74270.94;4855063;28;101961;-73
2024/02/12 02:00:25;;;;;;;;;4.00;3.00;;;;;-143.90;100.00;74260.59;4868658;28;101815;-73
2024/02/12 02:02:52;;;;;;;;;4.00;3.00;;;;;-143.90;100.00;74260.59;4863082;28;108290;-73
2024/02/12 02:05:19;;;;;;;;;7.00;5.50;;;;;-143.90;100.00;74266.81;4853350;28;102008;-73
2024/02/12 02:07:50;;;;;;;;;7.00;6.00;;;;;-143.90;100.00;74266.81;4856048;28;101828;-73
2024/02/12 02:10:17;;;;;;;;;6.25;5.00;;;;;-143.90;100.00;74275.06;4865802;28;101731;-73
2024/02/12 02:12:46;;;;;;;;;6.50;6.00;;;;;-143.90;100.00;74268.88;4864389;28;103428;-73
2024/02/12 02:15:13;;;;;;;;;4.75;4.00;;;;;-143.90;100.00;74268.88;4863254;28;102610;-73
2024/02/12 02:17:40;;;;;;;;;4.00;4.00;;;;;-143.90;100.00;74270.94;4853052;28;102756;-73
2024/02/12 02:20:12;;;;;;;;;3.50;3.00;;;;;-143.90;100.00;74266.81;4861312;28;103125;-73
2024/02/12 02:22:39;;;;;;;;;4.00;4.00;;;;;-143.90;100.00;74270.94;4868134;28;103392;-74
2024/02/12 02:25:09;;;;;;;;;6.50;5.50;;;;;-143.90;100.00;74273.00;4855760;28;102989;-73
2024/02/12 02:27:36;;;;;;;;;3.50;3.25;;;;;-143.90;100.00;74264.72;4856906;28;103200;-74
2024/02/12 02:30:07;;;;;;;;;4.00;2.75;;;;;-143.90;100.00;74270.94;4862816;28;102047;-74
2024/02/12 02:32:37;;;;;;;;;5.50;4.00;;;;;-143.90;100.00;74275.06;4862449;28;103515;-73
2024/02/12 02:35:05;;;;;;;;;4.00;3.50;;;;;-143.90;100.00;74270.94;4847346;28;101840;-73
2024/02/12 02:37:33;;;;;;;;;6.00;5.00;;;;;-143.90;100.00;74275.06;4855234;28;102453;-73
2024/02/12 02:40:00;;;;;;;;;3.50;3.00;;;;;-143.90;100.00;74279.22;4865464;28;101977;-74
2024/02/12 02:42:27;;;;;;;;;5.00;3.75;;;;;-143.90;100.00;74279.22;4871837;28;103308;-73
2024/02/12 02:44:54;;;;;;;;;5.50;3.25;;;;;-143.90;100.00;74279.22;4862114;28;102599;-73
2024/02/12 02:47:21;;;;;;;;;6.50;4.00;;;;;-143.90;100.00;74291.59;4854279;28;104313;-74
2024/02/12 02:49:48;;;;;;;;;6.75;5.00;;;;;-143.90;100.00;74281.28;4859871;28;102215;-73
2024/02/12 02:52:16;;;;;;;;;5.00;3.75;;;;;-143.90;100.00;74279.22;4863688;28;103398;-73
2024/02/12 02:54:43;;;;;;;;;3.25;3.25;;;;;-143.90;100.00;74275.06;4863187;28;101844;-73
2024/02/12 02:57:11;;;;;;;;;6.50;6.00;;;;;-143.90;100.00;74270.94;4861213;28;103442;-73
2024/02/12 02:59:39;;;;;;;;;6.50;6.50;;;;;-143.90;100.00;74273.00;4857905;28;102200;-73
2024/02/12 03:02:08;;;;;;;;;4.00;4.00;;;;;-143.90;100.00;74275.06;4860773;28;103497;-73
2024/02/12 03:04:35;;;;;;;;;7.00;7.00;;;;;-143.90;100.00;74285.41;4869773;28;102019;-72
2024/02/12 03:07:02;;;;;;;;;7.00;4.00;;;;;-143.90;100.00;74281.28;4865633;28;102091;-72
2024/02/12 03:09:29;;;;;;;;;4.50;4.50;;;;;-143.90;100.00;74275.06;4852232;28;101921;-73
2024/02/12 03:11:56;;;;;;;;;7.00;6.00;;;;;-143.90;100.00;74281.28;4860811;28;103548;-74
2024/02/12 03:14:22;;;;;;;;;4.50;4.00;;;;;-143.90;100.00;74291.59;4867052;28;101478;-72
2024/02/12 03:16:55;;;;;;;;;8.00;6.00;;;;;-143.90;100.00;74283.34;4862288;28;103337;-72
2024/02/12 03:19:22;;;;;;;;;5.00;4.00;;;;;-143.90;100.00;74287.47;4863004;28;101932;-73
2024/02/12 03:21:49;;;;;;;;;3.50;3.00;;;;;-143.90;100.00;74291.59;4862048;28;106313;-73
2024/02/12 03:24:19;;;;;;;;;4.00;4.00;;;;;-143.90;100.00;74301.94;4863110;28;101757;-73
2024/02/12 03:26:48;;;;;;;;;4.00;4.00;;;;;-143.90;100.00;74304.00;4867966;28;102512;-74
2024/02/12 03:29:14;;;;;;;;;3.50;3.50;;;;;-143.90;100.00;74312.28;4865065;28;101913;-74
2024/02/12 03:31:41;;;;;;;;;4.00;4.00;;;;;-143.90;100.00;74308.13;4857287;28;104037;-73
2024/02/12 03:34:08;;;;;;;;;3.50;3.50;;;;;-143.90;100.00;74310.22;4863465;28;102422;-72
2024/02/12 03:36:42;;;;;;;;;5.50;4.50;;;;;-143.90;100.00;74308.13;4861406;28;101788;-73
2024/02/12 03:39:14;;;;;;;;;6.00;6.00;;;;;-143.90;100.00;74320.53;4865383;28;101932;-73
2024/02/12 03:41:41;;;;;;;;;6.00;6.00;;;;;-143.90;100.00;74314.34;4861093;28;103550;-74
2024/02/12 03:44:09;;;;;;;;;5.00;4.00;;;;;-143.90;100.00;74320.53;4861277;28;101932;-74
2024/02/12 03:46:39;;;;;;;;;4.00;4.00;;;;;-143.90;100.00;74314.34;4865429;28;105322;-74
2024/02/12 04:00:18;;;;;;;;;7.00;4.00;;;;;-143.90;100.00;74332.94;4861841;28;101626;-74
2024/02/12 04:02:45;;;;;;;;;3.00;3.00;;;;;-143.90;100.00;74328.81;4859549;28;103556;-73
2024/02/12 04:05:12;;;;;;;;;5.00;5.00;;;;;-143.90;100.00;74330.88;4860655;28;105995;-73
2024/02/12 04:07:39;;;;;;;;;8.00;7.50;;;;;-143.90;100.00;74347.41;4854824;28;102540;-73
2024/02/12 04:10:10;;;;;;;;;7.00;6.00;;;;;-143.90;100.00;74341.22;4864478;28;102817;-73
2024/02/12 04:12:38;;;;;;;;;5.50;4.00;;;;;-143.90;100.00;74345.34;4865731;28;103753;-73
2024/02/12 04:15:08;;;;;;;;;8.00;6.75;;;;;-143.90;100.00;74345.34;4858650;28;101509;-73
2024/02/12 04:17:35;;;;;;;;;5.00;3.75;;;;;-143.90;100.00;74337.06;4843697;28;102039;-73
2024/02/12 04:20:05;;;;;;;;;4.50;4.00;;;;;-143.90;100.00;74341.22;4870970;28;102033;-74
2024/02/12 04:22:33;;;;;;;;;6.75;6.25;;;;;-143.90;100.00;74341.22;4864391;28;103579;-73
2024/02/12 04:25:01;;;;;;;;;9.25;8.50;;;;;-143.90;100.00;74349.47;4858683;28;101969;-73
2024/02/12 04:27:28;;;;;;;;;6.25;6.00;;;;;-143.90;100.00;74347.41;4853891;28;103020;-73
2024/02/12 04:29:56;;;;;;;;;4.00;4.00;;;;;-143.90;100.00;74353.63;4868351;28;101722;-73
2024/02/12 04:32:24;;;;;;;;;6.00;4.00;;;;;-143.90;100.00;74357.75;4861965;28;108294;-73
2024/02/12 04:34:50;;;;;;;;;6.00;3.75;;;;;-143.90;100.00;74355.69;4868680;28;101625;-73
2024/02/12 04:37:18;;;;;;;;;3.00;3.00;;;;;-143.90;100.00;74349.47;4865640;28;101964;-73
2024/02/12 04:39:47;;;;;;;;;3.00;3.00;;;;;-143.90;100.00;74349.47;4862747;28;103035;-73
2024/02/12 04:42:14;;;;;;;;;4.00;3.00;;;;;-143.90;100.00;74353.63;4862263;28;105010;-73
2024/02/12 04:44:41;;;;;;;;;4.00;3.50;;;;;-143.90;100.00;74355.69;4873993;28;102090;-73
2024/02/12 04:47:09;;;;;;;;;3.00;2.75;;;;;-143.90;100.00;74355.69;4869726;28;101922;-73
2024/02/12 04:49:36;;;;;;;;;3.00;3.00;;;;;-143.90;100.00;74357.75;4856963;28;102373;-73
2024/02/12 04:52:04;;;;;;;;;3.00;3.00;;;;;-143.90;100.00;74359.81;4860851;28;103300;-73
2024/02/12 04:54:33;;;;;;;;;4.00;3.25;;;;;-143.90;100.00;74357.75;4856255;28;102695;-73
2024/02/12 04:57:00;;;;;;;;;4.00;4.00;;;;;-143.90;100.00;74355.69;4842473;28;102158;-73
2024/02/12 04:59:27;;;;;;;;;1.75;1.75;;;;;-143.90;100.00;74366.00;4860124;28;102764;-74
2024/02/12 05:01:54;;;;;;;;;3.00;2.00;;;;;-143.90;100.00;74359.81;4869142;28;108116;-73
2024/02/12 05:04:21;;;;;;;;;3.00;3.00;;;;;-143.90;100.00;74361.88;4864776;28;101926;-73
2024/02/12 05:06:48;;;;;;;;;4.00;3.00;;;;;-143.90;100.00;74361.88;4867890;28;101708;-73
2024/02/12 05:09:15;;;;;;;;;5.25;4.00;;;;;-143.90;100.00;74368.09;4865808;28;102337;-73
2024/02/12 05:11:41;;;;;;;;;2.75;2.00;;;;;-143.90;100.00;74370.16;4858527;28;103260;-73
2024/02/12 05:14:08;;;;;;;;;2.00;2.00;;;;;-143.90;100.00;74361.88;4866486;28;102343;-73
2024/02/12 05:16:35;;;;;;;;;5.50;3.75;;;;;-143.90;100.00;74366.00;4854945;28;101971;-75
2024/02/12 05:24:35;;;;;;;;;6.50;4.00;;;;;-143.90;100.00;74370.16;4857446;28;108117;-73
2024/02/12 05:27:02;;;;;;;;;2.00;2.00;;;;;-143.90;100.00;74363.94;4863618;28;101947;-73
2024/02/12 05:29:29;;;;;;;;;2.50;2.50;;;;;-143.90;100.00;74368.09;4858883;28;102930;-73
2024/02/12 05:31:56;;;;;;;;;4.00;3.00;;;;;-143.90;100.00;74378.41;4862001;28;101676;-73
2024/02/12 05:34:23;;;;;;;;;3.75;3.00;;;;;-143.90;100.00;74376.34;4853215;28;108152;-73
2024/02/12 05:36:51;;;;;;;;;3.75;3.50;;;;;-143.90;100.00;74372.22;4858317;28;101972;-74
2024/02/12 05:39:21;;;;;;;;;2.75;2.75;;;;;-143.90;100.00;74368.09;4865409;28;102071;-74
2024/02/12 05:41:49;;;;;;;;;3.50;3.50;;;;;-143.90;100.00;74374.28;4856135;28;101602;-73
2024/02/12 05:44:16;;;;;;;;;3.75;3.00;;;;;-143.90;100.00;74376.34;4860911;28;103582;-74
2024/02/12 05:46:43;;;;;;;;;4.00;3.00;;;;;-143.90;100.00;74386.69;4866634;28;101829;-74
2024/02/12 05:49:13;;;;;;;;;6.00;6.00;;;;;-143.90;100.00;74382.56;4861672;28;101512;-73
2024/02/12 05:51:44;;;;;;;;;7.00;3.75;;;;;-143.90;100.00;74382.56;4861853;28;102178;-73
2024/02/12 05:54:11;;;;;;;;;3.00;3.00;;;;;-143.90;100.00;74382.56;4868863;28;103339;-73
2024/02/12 05:56:40;;;;;;;;;4.50;3.25;;;;;-143.90;100.00;74382.56;4862163;28;101858;-73
2024/02/12 05:59:09;;;;;;;;;4.00;4.00;;;;;-143.90;100.00;74386.69;4866828;28;101490;-73
2024/02/12 06:01:36;;;;;;;;;4.00;4.00;;;;;-143.90;100.00;74388.75;4844287;28;101704;-74
2024/02/12 06:04:03;;;;;;;;;6.00;4.00;;;;;-143.90;100.00;74394.94;4866523;28;103481;-73
2024/02/12 06:06:30;;;;;;;;;6.00;3.25;;;;;-143.90;100.00;74394.94;4866566;28;102558;-72
2024/02/12 06:08:57;;;;;;;;;5.00;5.00;;;;;-143.90;100.00;74397.03;4863164;28;102402;-73
2024/02/12 06:11:24;;;;;;;;;5.00;5.00;;;;;-143.90;100.00;74399.09;4862384;28;104701;-74
2024/02/12 06:13:51;;;;;;;;;4.00;4.00;;;;;-143.90;100.00;74403.22;4870480;28;103395;-73
2024/02/12 06:16:17;;;;;;;;;7.50;4.50;;;;;-143.90;100.00;74409.41;4867649;28;101807;-73
2024/02/12 06:18:44;;;;;;;;;7.00;6.00;;;;;-143.90;100.00;74417.69;4871481;28;101979;-73
2024/02/12 06:21:11;;;;;;;;;6.00;6.00;;;;;-143.90;100.00;74415.63;4876454;28;101642;-74
2024/02/12 06:23:38;;;;;;;;;3.00;3.00;;;;;-143.90;100.00;74417.69;4860303;28;103504;-74
2024/02/12 06:26:05;;;;;;;;;10.50;8.00;;;;;-143.90;100.00;74430.09;4869702;28;101622;-74
2024/02/12 06:28:31;;;;;;;;;6.25;6.25;;;;;-143.90;100.00;74421.81;4878989;28;101538;-74
2024/02/12 06:30:59;;;;;;;;;6.50;6.50;;;;;-143.90;100.00;74425.97;4875017;28;102134;-74
2024/02/12 06:33:26;;;;;;;;;7.00;6.00;;;;;-143.90;100.00;74421.81;4867650;28;108022;-73
2024/02/12 06:35:53;;;;;;;;;8.00;7.25;;;;;-143.90;100.00;74428.03;4870491;28;101852;-74
2024/02/12 06:38:20;;;;;;;;;8.75;8.00;;;;;-143.90;100.00;74419.75;4873080;28;101961;-74
2024/02/12 06:40:48;;;;;;;;;10.00;9.00;;;;;-143.90;100.00;74432.16;4878179;28;101741;-73
2024/02/12 06:43:15;;;;;;;;;11.75;7.00;;;;;-143.90;100.00;74428.03;4876294;28;103655;-74
2024/02/12 06:45:43;;;;;;;;;8.00;7.75;;;;;-143.90;100.00;74423.88;4868493;28;102014;-74
2024/02/12 06:48:09;;;;;;;;;11.75;7.75;;;;;-143.90;100.00;74425.97;4869509;28;101579;-72
2024/02/12 06:50:36;;;;;;;;;11.50;11.00;;;;;-143.90;100.00;74430.09;4875161;28;101595;-73
2024/02/12 06:53:03;;;;;;;;;9.25;7.00;;;;;-143.90;100.00;74432.16;4854471;28;103419;-73
2024/02/12 06:55:31;;;;;;;;;10.00;9.00;;;;;-143.90;100.00;74428.03;4869459;28;102101;-73
2024/02/12 06:57:58;;;;;;;;;9.75;8.00;;;;;-143.90;100.00;74423.88;4874886;28;101957;-74
2024/02/12 07:00:25;;;;;;;;;11.50;8.25;;;;;-143.90;100.00;74432.16;4877760;28;101880;-73
2024/02/12 07:02:52;;;;;;;;;10.50;8.50;;;;;-143.90;100.00;74432.16;4869039;28;103397;-73
2024/02/12 07:05:19;;;;;;;;;10.75;8.75;;;;;-143.90;100.00;74436.28;4876663;28;101737;-73
2024/02/12 07:07:46;;;;;;;;;8.50;7.00;;;;;-143.90;100.00;74423.88;4873325;28;101639;-73
2024/02/12 07:10:13;;;;;;;;;7.00;6.00;;;;;-143.90;100.00;74423.88;4874245;28;101975;-73
2024/02/12 07:12:40;;;;;;;;;12.25;8.00;;;;;-143.90;100.00;74425.97;4872338;28;103377;-73
2024/02/12 07:15:08;;;;;;;;;8.00;7.25;;;;;-143.90;100.00;74415.63;4870374;28;101629;-73
2024/02/12 07:17:35;;;;;;;;;9.00;8.25;;;;;-143.90;100.00;74415.63;4869382;28;102603;-73
2024/02/12 07:20:08;;;;;;;;;10.50;8.75;;;;;-143.90;100.00;74419.75;4870799;28;101842;-74
2024/02/12 07:22:36;;;;;;;;;8.75;8.00;;;;;-143.90;100.00;74419.75;4872864;28;103601;-74
2024/02/12 07:25:04;;;;;;;;;11.25;8.00;;;;;-143.90;100.00;74419.75;4870847;28;101578;-74
2024/02/12 07:27:31;;;;;;;;;7.75;7.00;;;;;-143.90;100.00;74415.63;4864039;28;101482;-73
2024/02/12 07:29:58;;;;;;;;;14.25;10.00;;;;;-143.90;100.00;74407.34;4872408;28;101583;-73
2024/02/12 07:32:25;;;;;;;;;11.50;8.25;;;;;-143.90;100.00;74407.34;4856322;28;107973;-74
2024/02/12 07:34:52;;;;;;;;;14.00;12.50;;;;;-143.90;100.00;74405.28;4874975;28;101758;-73
2024/02/12 07:37:19;;;;;;;;;14.75;11.00;;;;;-143.90;100.00;74407.34;4872259;28;101890;-74
2024/02/12 07:39:46;;;;;;;;;11.00;10.50;;;;;-143.90;100.00;74407.34;4867021;28;101636;-73
2024/02/12 07:42:13;;;;;;;;;12.50;11.25;;;;;-143.90;100.00;74405.28;4871676;28;103521;-73
2024/02/12 07:44:39;;;;;;;;;15.00;12.75;;;;;-143.90;100.00;74407.34;4874435;28;103469;-74
2024/02/12 07:47:06;;;;;;;;;15.50;12.25;;;;;-143.90;100.00;74403.22;4877625;28;101668;-74
2024/02/12 07:49:34;;;;;;;;;12.75;10.00;;;;;-143.90;100.00;74394.94;4868364;28;101627;-74
2024/02/12 07:52:02;;;;;;;;;10.00;9.00;;;;;-143.90;100.00;74392.88;4870502;28;103551;-74
2024/02/12 07:54:30;;;;;;;;;8.25;7.00;;;;;-143.90;100.00;74397.03;4874146;28;102041;-74
2024/02/12 07:56:57;;;;;;;;;12.50;10.25;;;;;-143.90;100.00;74401.16;4878946;28;101809;-74
2024/02/12 07:59:24;;;;;;;;;11.75;9.75;;;;;-143.90;100.00;74390.81;4870638;28;101613;-74
2024/02/12 08:01:51;;;;;;;;;11.50;9.75;;;;;-143.90;100.00;74380.47;4872575;28;103401;-74
2024/02/12 08:04:21;;;;;;;;;11.00;9.00;;;;;-143.90;100.00;74380.47;4872718;28;104820;-74
2024/02/12 08:06:49;;;;;;;;;13.00;11.50;;;;;-143.90;100.00;74413.56;4869740;28;101963;-73
2024/02/12 08:09:17;;;;;;;;;12.25;11.50;;;;;-143.90;100.00;74394.94;4881080;28;102136;-74
2024/02/12 08:11:45;;;;;;;;;4.00;3.25;;;;;-143.90;100.00;74386.69;4870904;28;104136;-74
2024/02/12 08:14:12;;;;;;;;;12.75;9.00;;;;;-143.90;100.00;74399.09;4874947;28;104459;-73
2024/02/12 08:16:43;;;;;;;;;9.75;9.00;;;;;-143.90;100.00;74394.94;4872789;28;102387;-74
2024/02/12 08:19:11;;;;;;;;;13.00;9.50;;;;;-143.90;100.00;74392.88;4869862;28;101959;-74
2024/02/12 08:21:38;;;;;;;;;12.50;10.00;;;;;-143.90;100.00;74384.63;4863515;28;103342;-73
2024/02/12 08:24:05;;;;;;;;;9.75;9.75;;;;;-143.90;100.00;74390.81;4878533;28;101921;-74
2024/02/12 08:26:31;;;;;;;;;11.00;9.25;;;;;-143.90;100.00;74374.28;4868634;28;101953;-74
2024/02/12 08:28:58;;;;;;;;;11.00;8.25;;;;;-143.90;100.00;74359.81;4875879;28;106172;-74
2024/02/12 08:31:25;;;;;;;;;7.75;7.50;;;;;-143.90;100.00;74357.75;4863097;28;102612;-74
2024/02/12 08:33:54;;;;;;;;;8.00;8.00;;;;;-143.90;100.00;74349.47;4872608;28;101949;-74
2024/02/12 08:36:21;;;;;;;;;10.75;8.00;;;;;-143.90;100.00;74335.00;4868906;28;101593;-73
2024/02/12 08:38:47;;;;;;;;;13.75;12.00;;;;;-143.90;100.00;74337.06;4878618;28;101981;-74
2024/02/12 08:41:22;;;;;;;;;7.50;6.00;;;;;-143.90;100.00;74332.94;4854627;28;103681;-73
2024/02/12 08:43:55;;;;;;;;;12.75;9.00;;;;;-143.90;100.00;74320.53;4863774;28;101984;-74
2024/02/12 08:46:23;;;;;;;;;12.00;10.00;;;;;-143.90;100.00;74312.28;4868051;28;102330;-73
2024/02/12 08:48:49;;;;;;;;;13.75;13.00;;;;;-143.90;100.00;74299.88;4874980;28;103447;-74
2024/02/12 08:51:16;;;;;;;;;12.50;11.00;;;;;-143.90;100.00;74304.00;4873324;28;103350;-74
2024/02/12 08:53:45;;;;;;;;;13.50;13.25;;;;;-143.90;100.00;74306.06;4865947;28;102414;-73
2024/02/12 08:56:17;;;;;;;;;9.00;9.00;;;;;-143.90;100.00;74297.81;4872661;28;101679;-75
2024/02/12 08:58:45;;;;;;;;;12.50;8.25;;;;;-143.90;100.00;74295.75;4873035;28;101664;-73
2024/02/12 09:01:13;;;;;;;;;11.25;10.25;;;;;-143.90;100.00;74304.00;4875540;28;103450;-74
2024/02/12 09:03:42;;;;;;;;;13.50;12.50;;;;;-143.90;100.00;74301.94;4864940;28;101722;-73
2024/02/12 09:06:15;;;;;;;;;9.75;8.00;;;;;-143.90;100.00;74299.88;4878294;28;101990;-73
2024/02/12 09:08:43;;;;;;;;;14.00;11.25;;;;;-143.90;100.00;74314.34;4873892;28;101959;-73
2024/02/12 09:11:11;;;;;;;;;9.25;8.00;;;;;-143.90;100.00;74308.13;4856413;28;103650;-73
2024/02/12 09:13:40;;;;;;;;;9.75;7.75;;;;;-143.90;100.00;74304.00;4860084;28;101523;-73
2024/02/12 09:16:08;;;;;;;;;11.00;10.50;;;;;-143.90;100.00;74295.75;4871351;28;101888;-73
2024/02/12 09:18:35;;;;;;;;;9.00;8.75;;;;;-143.90;100.00;74275.06;4872777;28;101758;-73
2024/02/12 09:21:02;;;;;;;;;10.00;7.75;;;;;-143.90;100.00;74260.59;4871657;28;103438;-75
2024/02/12 09:23:30;;;;;;;;;10.25;8.75;;;;;-143.90;100.00;74242.00;4869753;28;102157;-73
2024/02/12 09:25:56;;;;;;;;;7.00;6.25;;;;;-143.90;100.00;74250.25;4879196;28;101984;-73
2024/02/12 09:28:26;;;;;;;;;9.00;7.00;;;;;-143.90;100.00;74246.13;4877462;28;102210;-74
2024/02/12 09:30:57;;;;;;;;;4.50;4.50;;;;;-143.90;100.00;74229.59;4874247;28;107954;-74
2024/02/12 09:33:24;;;;;;;;;6.25;5.00;;;;;-143.90;100.00;74227.53;4873941;28;101677;-74
2024/02/12 09:35:51;;;;;;;;;5.25;4.00;;;;;-143.90;100.00;74223.41;4876234;28;101890;-74
2024/02/12 09:38:18;;;;;;;;;5.50;4.00;;;;;-143.90;100.00;74223.41;4872940;28;101856;-74
2024/02/12 09:40:45;;;;;;;;;7.75;7.00;;;;;-143.90;100.00;74239.94;4877465;28;103359;-74
2024/02/12 09:43:13;;;;;;;;;11.00;8.25;;;;;-143.90;100.00;74254.41;4873426;28;101972;-74
2024/02/12 09:45:43;;;;;;;;;8.75;8.50;;;;;-143.90;100.00;74262.66;4846063;28;104128;-74
2024/02/12 09:48:12;;;;;;;;;6.50;5.00;;;;;-143.90;100.00;74260.59;4871174;28;103223;-75
2024/02/12 09:50:44;;;;;;;;;8.50;8.00;;;;;-143.90;100.00;74266.81;4874715;28;103557;-74
2024/02/12 09:53:13;;;;;;;;;9.00;6.50;;;;;-143.90;100.00;74275.06;4875109;28;101798;-74
2024/02/12 09:55:41;;;;;;;;;5.75;5.75;;;;;-143.90;100.00;74283.34;4864616;28;105308;-74
2024/02/12 09:58:07;;;;;;;;;8.00;5.50;;;;;-143.90;100.00;74283.34;4875764;28;101656;-74
2024/02/12 10:00:35;;;;;;;;;6.00;4.75;;;;;-143.90;100.00;74283.34;4857869;28;103520;-74
2024/02/12 10:03:03;;;;;;;;;3.25;3.25;;;;;-143.90;100.00;74277.13;4850845;28;101797;-74
2024/02/12 10:05:31;;;;;;;;;3.50;3.50;;;;;-143.90;100.00;74279.22;4850962;28;101717;-75
2024/02/12 10:08:01;;;;;;;;;7.75;5.00;;;;;-143.90;100.00;74291.59;4851608;28;101701;-74
2024/02/12 10:10:30;;;;;;;;;11.50;8.00;;;;;-143.90;100.00;74287.47;4852911;28;108326;-74
2024/02/12 10:12:56;;;;;;;;;13.25;11.00;;;;;-143.90;100.00;74295.75;4834959;28;102008;-74
2024/02/12 10:15:23;;;;;;;;;8.25;7.50;;;;;-143.90;100.00;74285.41;4845287;28;101542;-74
2024/02/12 10:17:54;;;;;;;;;10.50;7.50;;;;;-143.90;100.00;74281.28;4856259;28;103076;-74
2024/02/12 10:20:22;;;;;;;;;9.50;8.50;;;;;-143.90;100.00;74279.22;4851363;28;103363;-74
2024/02/12 10:22:49;;;;;;;;;11.00;9.25;;;;;-143.90;100.00;74273.00;4852097;28;101969;-74
2024/02/12 10:25:19;;;;;;;;;11.00;7.50;;;;;-143.90;100.00;74279.22;4852108;28;102817;-74
2024/02/12 10:27:46;;;;;;;;;8.25;7.50;;;;;-143.90;100.00;74273.00;4845760;28;102295;-74
2024/02/12 10:30:16;;;;;;;;;8.75;8.00;;;;;-143.90;100.00;74258.53;4850152;28;103469;-74
2024/02/12 10:32:50;;;;;;;;;16.25;14.25;;;;;-143.90;100.00;74262.66;4854927;28;101872;-74
2024/02/12 10:35:20;;;;;;;;;13.75;10.00;;;;;-143.90;100.00;74260.59;4850545;28;102038;-74
2024/02/12 10:37:51;;;;;;;;;10.50;9.75;;;;;-143.90;100.00;74264.72;4847233;28;102078;-74
2024/02/12 10:40:24;;;;;;;;;11.25;9.00;;;;;-143.90;100.00;74258.53;4850269;28;103567;-74
2024/02/12 10:42:52;;;;;;;;;13.00;10.25;;;;;-143.90;100.00;74270.94;4851534;28;101896;-74
2024/02/12 10:45:19;;;;;;;;;10.75;10.25;;;;;-143.90;100.00;74293.66;4850783;28;104126;-74
2024/02/12 10:47:47;;;;;;;;;11.00;9.50;;;;;-143.90;100.00;74287.47;4846124;28;103976;-74
2024/02/12 10:50:17;;;;;;;;;9.75;9.00;;;;;-143.90;100.00;74291.59;4831944;28;103351;-73
2024/02/12 10:52:48;;;;;;;;;14.75;11.75;;;;;-143.90;100.00;74289.53;4832082;28;102281;-74
2024/02/12 10:55:16;;;;;;;;;14.25;11.50;;;;;-143.90;100.00;74314.34;4849622;28;101938;-73
2024/02/12 10:57:44;;;;;;;;;11.00;10.00;;;;;-143.90;100.00;74312.28;4842764;28;101961;-73
2024/02/12 11:00:23;;;;;;;;;11.00;10.00;;;;;-143.90;100.00;74293.66;4860184;28;103563;-74
2024/02/12 11:02:50;;;;;;;;;9.25;9.00;;;;;-143.90;100.00;74285.41;4867732;28;101717;-74
2024/02/12 11:05:18;;;;;;;;;14.25;13.00;;;;;-143.90;100.00;74275.06;4867889;28;101901;-74
2024/02/12 11:07:45;;;;;;;;;15.50;14.00;;;;;-143.90;100.00;74256.47;4866677;28;101741;-74
2024/02/12 11:10:18;;;;;;;;;19.75;16.75;;;;;-143.90;100.00;74256.47;4853966;28;103650;-74
2024/02/12 11:12:46;;;;;;;;;16.50;13.75;;;;;-143.90;100.00;74256.47;4874433;28;101802;-73
2024/02/12 11:15:21;;;;;;;;;11.00;10.25;;;;;-143.90;100.00;74244.06;4861349;28;101615;-74
2024/02/12 11:17:48;;;;;;;;;8.25;8.00;;;;;-143.90;100.00;74244.06;4876501;28;101892;-74
2024/02/12 11:20:17;;;;;;;;;12.00;11.25;;;;;-143.90;100.00;74258.53;4879271;28;103577;-74